Time;durP1;ratioP1;P1;durP2;ratioP2;P2;SDS_P1;SDS_P2;PMS_P1;PMS_P2;Temp;Humidity;BMP_temperature;BMP_pressure;BME280_temperature;BME280_humidity;BME280_pressure;Samples;Min_cycle;Max_cycle;Signal;HPM_P1;HPM_P2
2023/07/18 00:00:14;;;;;;;2.57;1.67;;;;;;;16.99;70.81;98680.50;5093472;28;20573;-78
2023/07/18 00:02:42;;;;;;;3.40;1.60;;;;;;;17.01;70.20;98675.88;5094224;28;20202;-78
2023/07/18 00:05:11;;;;;;;2.53;1.57;;;;;;;17.03;69.69;98679.28;5094270;28;20720;-78
2023/07/18 00:07:38;;;;;;;2.10;1.50;;;;;;;17.02;69.27;98674.88;5093954;28;20663;-77
2023/07/18 00:10:05;;;;;;;2.27;1.73;;;;;;;17.03;69.50;98683.75;5092915;28;20262;-78
2023/07/18 00:12:32;;;;;;;3.13;1.70;;;;;;;16.99;69.49;98682.31;5093851;28;20688;-78
2023/07/18 00:15:03;;;;;;;2.90;1.70;;;;;;;16.99;69.76;98683.19;5093841;28;20222;-78
2023/07/18 00:17:29;;;;;;;1.80;1.60;;;;;;;16.98;69.98;98685.97;5093882;28;20260;-78
2023/07/18 00:19:56;;;;;;;3.67;1.77;;;;;;;16.96;70.13;98680.75;5092895;28;20234;-78
2023/07/18 00:22:22;;;;;;;1.83;1.60;;;;;;;16.96;70.25;98687.94;5093690;28;20214;-78
2023/07/18 00:24:49;;;;;;;2.20;1.50;;;;;;;16.92;70.09;98682.03;5093443;28;20210;-78
2023/07/18 00:27:16;;;;;;;3.00;1.47;;;;;;;16.96;70.12;98683.44;5093539;28;20688;-78
2023/07/18 00:29:43;;;;;;;2.50;1.30;;;;;;;16.97;70.62;98685.16;5092756;28;20238;-77
2023/07/18 00:32:11;;;;;;;1.80;1.50;;;;;;;16.96;71.33;98695.94;5093317;28;20222;-78
2023/07/18 00:34:40;;;;;;;3.10;1.70;;;;;;;16.96;71.19;98694.09;5093515;28;20252;-78
2023/07/18 00:37:07;;;;;;;1.73;1.50;;;;;;;16.89;72.03;98698.28;5093380;28;20211;-78
2023/07/18 00:39:33;;;;;;;1.97;1.67;;;;;;;16.86;72.50;98698.56;5092466;28;20202;-78
2023/07/18 00:42:00;;;;;;;3.17;1.53;;;;;;;16.83;72.32;98698.81;5093644;28;20610;-78
2023/07/18 00:44:27;;;;;;;2.93;1.57;;;;;;;16.79;72.23;98694.72;5093349;28;20233;-78
2023/07/18 00:46:54;;;;;;;2.43;1.60;;;;;;;16.83;71.78;98693.47;5093394;28;20241;-78
2023/07/18 00:49:22;;;;;;;6.53;1.80;;;;;;;16.79;72.29;98702.75;5092341;28;20684;-78
2023/07/18 00:51:49;;;;;;;3.07;1.77;;;;;;;16.76;72.75;98700.31;5092903;28;20250;-77
2023/07/18 00:54:16;;;;;;;3.67;2.00;;;;;;;16.79;72.44;98691.19;5093234;28;20215;-78
2023/07/18 00:56:42;;;;;;;3.30;2.00;;;;;;;16.81;72.55;98679.41;5093021;28;20221;-77
2023/07/18 00:59:11;;;;;;;3.10;1.90;;;;;;;16.83;72.65;98682.78;5090257;28;20206;-78
2023/07/18 01:01:38;;;;;;;4.17;2.20;;;;;;;16.84;73.06;98680.97;5091337;28;20231;-78
2023/07/18 01:04:05;;;;;;;3.27;1.80;;;;;;;16.87;73.46;98683.38;5092920;28;20214;-78
2023/07/18 01:06:33;;;;;;;3.17;2.07;;;;;;;16.85;74.02;98686.19;5092687;28;20217;-78
2023/07/18 01:08:59;;;;;;;3.87;2.23;;;;;;;16.88;74.50;98685.91;5092812;28;20214;-78
2023/07/18 01:11:26;;;;;;;3.23;2.10;;;;;;;16.86;75.23;98681.69;5092201;28;20234;-78
2023/07/18 01:13:53;;;;;;;3.50;2.20;;;;;;;16.80;76.05;98688.41;5092578;28;20258;-78
2023/07/18 01:16:19;;;;;;;3.80;2.10;;;;;;;16.74;75.78;98678.25;5092658;28;20203;-77
2023/07/18 01:18:46;;;;;;;2.20;1.80;;;;;;;16.72;75.29;98674.88;5092562;28;20210;-78
2023/07/18 01:21:18;;;;;;;3.33;2.10;;;;;;;16.72;75.24;98669.53;5091633;28;20238;-77
2023/07/18 01:23:46;;;;;;;2.73;2.20;;;;;;;16.73;75.67;98671.22;5092743;28;20335;-78
2023/07/18 01:26:12;;;;;;;3.43;2.33;;;;;;;16.64;77.77;98682.66;5092431;28;20207;-78
2023/07/18 01:28:39;;;;;;;5.00;2.60;;;;;;;16.54;78.20;98681.78;5092465;28;20210;-78
2023/07/18 01:31:06;;;;;;;3.20;2.57;;;;;;;16.38;79.26;98681.38;5091311;28;20231;-77
2023/07/18 01:33:32;;;;;;;3.73;2.20;;;;;;;16.30;79.22;98669.59;5092172;28;20233;-78
2023/07/18 01:35:59;;;;;;;5.13;2.37;;;;;;;16.20;80.03;98666.88;5092540;28;20232;-77
2023/07/18 01:38:29;;;;;;;4.20;2.50;;;;;;;16.13;80.94;98671.03;5092279;28;20218;-77
2023/07/18 01:40:55;;;;;;;2.80;2.40;;;;;;;16.15;80.29;98669.06;5091426;28;20698;-77
2023/07/18 01:43:22;;;;;;;2.67;2.23;;;;;;;16.10;80.73;98676.59;5092143;28;20240;-79
2023/07/18 01:45:48;;;;;;;3.13;2.20;;;;;;;16.13;81.25;98669.34;5092061;28;20285;-78
2023/07/18 01:48:15;;;;;;;4.57;2.40;;;;;;;16.14;81.51;98656.72;5092328;28;20218;-77
2023/07/18 01:50:42;;;;;;;5.20;2.93;;;;;;;16.08;83.81;98673.22;5091052;28;20231;-77
2023/07/18 01:53:10;;;;;;;5.63;3.03;;;;;;;16.04;84.14;98677.09;5092098;28;20217;-77
2023/07/18 01:55:38;;;;;;;3.70;2.50;;;;;;;15.97;84.67;98674.22;5091961;28;20210;-77
2023/07/18 01:58:05;;;;;;;5.33;2.80;;;;;;;15.87;86.81;98679.47;5091860;28;20213;-77
2023/07/18 02:00:32;;;;;;;4.73;2.83;;;;;;;15.82;87.28;98672.84;5091007;28;20225;-77
2023/07/18 02:02:59;;;;;;;4.90;2.83;;;;;;;15.74;87.89;98683.25;5091995;28;20227;-77
2023/07/18 02:05:27;;;;;;;3.90;2.70;;;;;;;15.69;88.75;98675.63;5091828;28;20199;-78
2023/07/18 02:07:54;;;;;;;4.83;2.83;;;;;;;15.63;89.66;98676.13;5091873;28;20246;-77
2023/07/18 02:10:22;;;;;;;3.73;2.80;;;;;;;15.61;89.77;98677.22;5090675;28;20280;-77
2023/07/18 02:12:51;;;;;;;4.17;2.63;;;;;;;15.60;90.82;98675.53;5091259;28;20210;-77
2023/07/18 02:15:18;;;;;;;5.67;2.73;;;;;;;15.64;90.81;98677.00;5091426;28;20217;-77
2023/07/18 02:17:45;;;;;;;5.20;2.87;;;;;;;15.61;90.67;98663.91;5091729;28;20211;-77
2023/07/18 02:20:13;;;;;;;3.50;2.70;;;;;;;15.57;91.54;98678.47;5090788;28;20231;-77
2023/07/18 02:22:42;;;;;;;7.00;2.90;;;;;;;15.55;91.95;98672.38;5091521;28;20202;-77
2023/07/18 02:25:09;;;;;;;7.53;2.83;;;;;;;15.53;91.86;98663.69;5091428;28;20222;-77
2023/07/18 02:27:39;;;;;;;7.63;2.90;;;;;;;15.47;91.61;98664.19;5091380;28;20222;-77
2023/07/18 02:30:09;;;;;;;6.00;2.63;;;;;;;15.44;91.58;98659.06;5090594;28;20255;-77
2023/07/18 02:32:36;;;;;;;4.27;2.70;;;;;;;15.35;92.19;98659.84;5091618;28;20249;-78
2023/07/18 02:35:03;;;;;;;3.27;2.70;;;;;;;15.29;93.20;98660.28;5091455;28;20207;-77
2023/07/18 02:37:29;;;;;;;5.00;2.60;;;;;;;15.28;92.81;98664.75;5091242;28;20206;-77
2023/07/18 02:39:55;;;;;;;4.37;2.77;;;;;;;15.23;93.25;98666.97;5090456;28;20246;-77
2023/07/18 02:42:22;;;;;;;5.40;2.50;;;;;;;15.28;93.55;98663.94;5091198;28;20198;-77
2023/07/18 02:44:49;;;;;;;3.53;2.73;;;;;;;15.29;94.36;98670.94;5091365;28;20210;-77
2023/07/18 02:47:17;;;;;;;4.60;2.70;;;;;;;15.36;94.59;98672.19;5091333;28;20206;-78
2023/07/18 02:49:43;;;;;;;5.87;2.50;;;;;;;15.33;95.40;98667.09;5090419;28;20210;-77
2023/07/18 02:52:10;;;;;;;3.87;2.23;;;;;;;15.30;94.79;98667.31;5091130;28;20568;-77
2023/07/18 02:54:36;;;;;;;3.17;2.40;;;;;;;15.18;96.98;98684.25;5091019;28;20207;-77
2023/07/18 02:57:03;;;;;;;6.67;3.10;;;;;;;15.14;96.93;98680.13;5091161;28;20210;-77
2023/07/18 02:59:29;;;;;;;7.77;3.30;;;;;;;15.07;96.53;98676.25;5090533;28;20218;-77
2023/07/18 03:01:57;;;;;;;6.73;3.07;;;;;;;15.06;96.18;98658.59;5091300;28;20226;-77
2023/07/18 03:04:25;;;;;;;4.00;2.60;;;;;;;15.09;95.74;98664.53;5091140;28;20198;-78
2023/07/18 03:06:52;;;;;;;4.90;2.87;;;;;;;15.16;95.13;98667.56;5091053;28;20590;-77
2023/07/18 03:09:21;;;;;;;3.87;2.70;;;;;;;15.14;96.04;98672.13;5090122;28;20218;-77
2023/07/18 03:11:49;;;;;;;4.23;2.70;;;;;;;15.05;97.73;98679.06;5090959;28;20270;-77
2023/07/18 03:14:16;;;;;;;6.23;3.10;;;;;;;15.14;95.45;98682.78;5091121;28;20301;-77
2023/07/18 03:16:43;;;;;;;4.00;2.57;;;;;;;15.05;94.29;98678.22;5090974;28;20230;-77
2023/07/18 03:19:10;;;;;;;4.73;2.53;;;;;;;14.76;96.85;98685.81;5090207;28;20211;-77
2023/07/18 03:21:38;;;;;;;5.97;2.50;;;;;;;14.60;98.92;98684.44;5090817;28;20219;-77
2023/07/18 03:24:07;;;;;;;5.50;2.83;;;;;;;14.56;99.51;98682.97;5090953;28;20229;-77
2023/07/18 03:26:34;;;;;;;4.17;3.20;;;;;;;14.71;98.61;98668.47;5094912;28;20207;-77
2023/07/18 03:29:00;;;;;;;3.50;2.50;;;;;;;14.65;99.50;98674.28;5094801;28;20209;-77
2023/07/18 03:31:27;;;;;;;4.67;2.57;;;;;;;14.61;100.00;98675.50;5108742;22;20277;-75
2023/07/18 03:33:53;;;;;;;5.23;2.70;;;;;;;14.61;100.00;98672.84;5094917;28;20297;-76
2023/07/18 03:36:20;;;;;;;5.73;2.90;;;;;;;14.71;100.00;98673.81;5094613;28;20211;-76
2023/07/18 03:38:48;;;;;;;5.13;3.00;;;;;;;14.82;98.09;98665.84;5094872;28;20297;-75
2023/07/18 03:41:14;;;;;;;4.63;2.90;;;;;;;14.79;97.71;98658.09;5094112;28;20592;-76
2023/07/18 03:43:41;;;;;;;3.20;2.43;;;;;;;14.67;98.69;98661.72;5094632;28;20217;-76
2023/07/18 03:46:07;;;;;;;4.13;2.60;;;;;;;14.58;100.00;98659.75;5094443;28;20203;-76
2023/07/18 03:48:34;;;;;;;5.60;2.90;;;;;;;14.58;100.00;98647.31;5094511;28;20559;-75
2023/07/18 03:51:04;;;;;;;7.60;2.80;;;;;;;14.63;100.00;98650.47;5093567;28;20596;-75
2023/07/18 03:53:30;;;;;;;4.63;2.77;;;;;;;14.72;100.00;98648.91;5094478;28;20211;-75
2023/07/18 03:56:04;;;;;;;4.57;3.10;;;;;;;14.77;100.00;98636.06;5094382;28;20211;-76
2023/07/18 03:58:30;;;;;;;3.23;2.40;;;;;;;14.82;99.64;98647.22;5094310;28;20206;-76
2023/07/18 04:00:57;;;;;;;5.37;3.20;;;;;;;14.80;100.00;98654.47;5093462;28;20222;-76
2023/07/18 04:03:23;;;;;;;3.93;2.40;;;;;;;14.77;100.00;98662.69;5094042;28;20207;-75
2023/07/18 04:05:51;;;;;;;4.93;2.80;;;;;;;14.71;100.00;98668.47;5094253;28;20233;-76
2023/07/18 04:08:18;;;;;;;3.93;2.93;;;;;;;14.63;100.00;98669.09;5094148;28;20207;-75
2023/07/18 04:10:44;;;;;;;4.17;2.63;;;;;;;14.54;100.00;98664.47;5093201;28;20226;-75
2023/07/18 04:13:12;;;;;;;3.37;2.53;;;;;;;14.57;100.00;98656.25;5093964;28;20207;-76
2023/07/18 04:15:39;;;;;;;5.63;3.33;;;;;;;14.61;100.00;98656.88;5093897;28;20301;-76
2023/07/18 04:18:05;;;;;;;4.97;3.23;;;;;;;14.51;100.00;98667.38;5093807;28;20578;-77
2023/07/18 04:20:32;;;;;;;4.67;2.67;;;;;;;14.49;100.00;98665.78;5092990;28;20231;-77
2023/07/18 04:22:58;;;;;;;4.90;2.93;;;;;;;14.47;100.00;98670.34;5093862;28;20577;-74
2023/07/18 04:25:25;;;;;;;5.13;3.37;;;;;;;14.49;100.00;98660.47;5093704;28;20207;-75
2023/07/18 04:27:51;;;;;;;4.47;3.03;;;;;;;14.47;100.00;98670.34;5093771;28;20210;-75
2023/07/18 04:30:19;;;;;;;4.60;2.97;;;;;;;14.49;100.00;98669.28;5092742;28;20211;-75
2023/07/18 04:32:46;;;;;;;5.03;3.40;;;;;;;14.53;100.00;98664.56;5093055;28;20230;-77
2023/07/18 04:35:13;;;;;;;4.43;3.10;;;;;;;14.56;100.00;98669.66;5093498;28;20582;-76
2023/07/18 04:37:40;;;;;;;4.80;3.40;;;;;;;14.65;100.00;98658.31;5093575;28;20217;-74
2023/07/18 04:40:08;;;;;;;5.77;3.60;;;;;;;14.75;100.00;98664.63;5092737;28;20206;-76
2023/07/18 04:42:37;;;;;;;5.80;3.23;;;;;;;14.79;100.00;98666.09;5093537;28;20198;-75
2023/07/18 04:45:05;;;;;;;5.33;3.47;;;;;;;14.82;100.00;98657.84;5093356;28;20493;-76
2023/07/18 04:47:33;;;;;;;7.03;3.17;;;;;;;14.82;100.00;98656.06;5093437;28;20207;-75
2023/07/18 04:50:00;;;;;;;5.60;3.00;;;;;;;14.88;100.00;98655.56;5092746;28;20210;-78
2023/07/18 04:52:27;;;;;;;5.83;3.37;;;;;;;14.95;100.00;98653.25;5093282;28;20227;-76
2023/07/18 04:54:54;;;;;;;7.03;3.80;;;;;;;15.04;100.00;98655.22;5093358;28;20352;-76
2023/07/18 04:57:21;;;;;;;6.90;3.87;;;;;;;15.13;100.00;98649.16;5093295;28;20255;-75
2023/07/18 04:59:47;;;;;;;6.83;3.47;;;;;;;15.23;100.00;98653.66;5092411;28;20207;-76
2023/07/18 05:02:14;;;;;;;4.30;2.83;;;;;;;15.27;100.00;98652.41;5093164;28;20227;-75
2023/07/18 05:04:42;;;;;;;3.63;2.83;;;;;;;15.41;100.00;98649.50;5093207;28;20574;-77
2023/07/18 05:07:08;;;;;;;4.67;3.03;;;;;;;15.54;100.00;98646.72;5093116;28;20233;-76
2023/07/18 05:09:35;;;;;;;4.83;3.60;;;;;;;15.61;100.00;98638.13;5092347;28;20213;-74
2023/07/18 05:12:01;;;;;;;5.47;2.63;;;;;;;15.76;100.00;98636.03;5092618;28;20231;-74
2023/07/18 05:14:28;;;;;;;5.43;3.20;;;;;;;15.97;98.50;98634.22;5092732;28;20665;-76
2023/07/18 05:16:54;;;;;;;5.37;3.10;;;;;;;16.03;96.67;98627.41;5093152;28;20586;-75
2023/07/18 05:19:21;;;;;;;5.50;3.40;;;;;;;16.24;95.62;98636.31;5092286;28;20237;-76
2023/07/18 05:21:50;;;;;;;5.53;3.50;;;;;;;16.79;93.92;98633.31;5092673;28;20280;-75
2023/07/18 05:24:17;;;;;;;4.37;3.40;;;;;;;17.37;91.25;98629.94;5092656;28;20207;-75
2023/07/18 05:26:43;;;;;;;5.87;3.57;;;;;;;18.12;85.75;98612.34;5092587;28;20270;-75
2023/07/18 05:29:09;;;;;;;5.07;3.40;;;;;;;18.85;80.88;98593.78;5091728;28;20207;-75
2023/07/18 05:31:36;;;;;;;6.87;3.50;;;;;;;19.38;76.77;98583.28;5092351;28;20234;-76
2023/07/18 05:34:02;;;;;;;4.33;3.30;;;;;;;19.87;73.45;98567.53;5092614;28;20213;-75
2023/07/18 05:36:29;;;;;;;5.70;3.70;;;;;;;20.29;70.57;98565.09;5092476;28;20222;-75
2023/07/18 05:38:57;;;;;;;5.90;3.50;;;;;;;20.69;68.51;98568.03;5092317;28;20685;-75
2023/07/18 05:41:23;;;;;;;4.53;3.30;;;;;;;21.06;66.60;98561.41;5091500;28;20229;-75
2023/07/18 05:43:50;;;;;;;4.90;3.53;;;;;;;21.38;65.16;98553.47;5092545;28;20202;-75
2023/07/18 05:46:17;;;;;;;6.13;3.40;;;;;;;21.71;63.40;98552.56;5092419;28;20206;-75
2023/07/18 05:48:43;;;;;;;5.33;3.70;;;;;;;21.98;61.92;98543.34;5091687;28;20301;-75
2023/07/18 05:51:10;;;;;;;5.47;3.37;;;;;;;22.19;60.18;98541.84;5091117;28;20234;-76
2023/07/18 05:53:36;;;;;;;7.07;3.47;;;;;;;22.39;59.16;98532.44;5092057;28;20210;-76
2023/07/18 05:56:04;;;;;;;6.43;3.43;;;;;;;22.68;59.09;98537.28;5091799;28;20210;-76
2023/07/18 05:58:31;;;;;;;5.03;3.37;;;;;;;22.90;57.01;98520.38;5091948;28;20241;-75
2023/07/18 06:00:57;;;;;;;6.27;3.53;;;;;;;23.13;55.92;98522.16;5090945;28;20576;-77
2023/07/18 06:03:23;;;;;;;5.60;3.43;;;;;;;23.33;55.41;98514.47;5091887;28;20210;-76
2023/07/18 06:05:53;;;;;;;5.17;3.50;;;;;;;23.51;54.03;98521.31;5091786;28;20214;-75
2023/07/18 06:08:20;;;;;;;4.00;3.30;;;;;;;23.67;53.54;98520.38;5091973;28;20221;-74
2023/07/18 06:10:47;;;;;;;5.10;3.50;;;;;;;23.75;52.92;98518.47;5090976;28;20713;-74
2023/07/18 06:13:14;;;;;;;4.30;3.80;;;;;;;23.86;52.95;98515.34;5092027;28;20230;-75
2023/07/18 06:15:41;;;;;;;5.23;3.17;;;;;;;24.03;52.70;98511.53;5092158;28;20222;-76
2023/07/18 06:18:07;;;;;;;5.53;3.60;;;;;;;24.19;51.74;98506.00;5093790;28;20207;-76
2023/07/18 06:20:34;;;;;;;4.37;3.20;;;;;;;24.17;50.72;98508.03;5092900;28;20231;-75
2023/07/18 06:23:00;;;;;;;5.40;3.37;;;;;;;24.08;50.02;98502.91;5094482;28;20213;-75
2023/07/18 06:25:27;;;;;;;5.33;3.00;;;;;;;24.19;50.22;98516.78;5094134;28;20215;-75
2023/07/18 06:27:53;;;;;;;5.43;2.77;;;;;;;24.22;49.35;98516.44;5092994;28;20664;-76
2023/07/18 06:30:21;;;;;;;4.17;2.83;;;;;;;24.40;48.41;98508.00;5090893;28;20257;-76
2023/07/18 06:32:47;;;;;;;4.93;2.60;;;;;;;24.40;47.92;98508.84;5091513;28;20249;-76
2023/07/18 06:35:14;;;;;;;2.43;2.07;;;;;;;24.52;46.97;98504.69;5091379;28;20210;-74
2023/07/18 06:37:41;;;;;;;4.20;2.40;;;;;;;24.71;46.79;98500.63;5091206;28;20233;-76
2023/07/18 06:40:11;;;;;;;4.27;2.63;;;;;;;24.89;46.98;98503.78;5090760;28;20207;-75
2023/07/18 06:42:38;;;;;;;2.70;2.20;;;;;;;25.01;45.54;98497.75;5091586;28;20623;-75
2023/07/18 06:45:05;;;;;;;3.60;2.40;;;;;;;25.01;45.62;98495.03;5091443;28;20208;-76
2023/07/18 06:47:33;;;;;;;2.40;1.93;;;;;;;24.82;45.05;98484.75;5091311;28;20214;-80
2023/07/18 06:50:00;;;;;;;4.20;2.60;;;;;;;24.79;45.27;98487.84;5090494;28;20217;-75
2023/07/18 06:52:26;;;;;;;3.50;2.23;;;;;;;24.73;45.11;98483.19;5091489;28;20608;-76
2023/07/18 06:54:54;;;;;;;4.83;1.90;;;;;;;24.75;45.54;98483.84;5091196;28;20210;-74
2023/07/18 06:57:21;;;;;;;3.27;2.20;;;;;;;24.80;45.63;98488.69;5091322;28;20215;-74
2023/07/18 06:59:47;;;;;;;4.57;2.03;;;;;;;24.73;44.77;98488.59;5093620;28;20207;-75
2023/07/18 07:02:14;;;;;;;3.53;2.00;;;;;;;24.69;45.83;98495.38;5095440;28;20222;-75
2023/07/18 07:04:42;;;;;;;4.53;2.13;;;;;;;24.56;45.91;98492.47;5095047;28;20255;-77
2023/07/18 07:07:09;;;;;;;5.83;2.50;;;;;;;24.14;47.18;98502.16;5095466;28;20211;-75
2023/07/18 07:09:37;;;;;;;4.20;2.30;;;;;;;23.69;48.33;98497.59;5094376;28;20207;-75
2023/07/18 07:12:07;;;;;;;4.77;2.17;;;;;;;23.24;49.14;98500.22;5095059;28;20230;-76
2023/07/18 07:14:34;;;;;;;3.83;2.10;;;;;;;22.79;50.39;98501.91;5095217;28;20207;-75
2023/07/18 07:17:00;;;;;;;4.43;2.30;;;;;;;22.47;51.30;98501.97;5094930;28;20700;-75
2023/07/18 07:19:27;;;;;;;3.13;2.33;;;;;;;22.26;51.86;98501.63;5094084;28;20210;-75
2023/07/18 07:21:55;;;;;;;5.03;2.20;;;;;;;22.17;51.79;98495.41;5095132;28;20268;-76
2023/07/18 07:24:24;;;;;;;4.33;2.47;;;;;;;22.16;52.24;98493.72;5095120;28;20266;-76
2023/07/18 07:26:51;;;;;;;5.00;2.20;;;;;;;22.12;52.18;98492.38;5094800;28;20699;-75
2023/07/18 07:29:19;;;;;;;3.90;2.50;;;;;;;22.10;52.69;98494.41;5092488;28;20206;-74
2023/07/18 07:31:46;;;;;;;4.33;2.40;;;;;;;22.10;53.62;98493.56;5093248;28;20239;-74
2023/07/18 07:34:13;;;;;;;2.33;1.97;;;;;;;22.09;53.52;98492.72;5092187;28;20219;-75
2023/07/18 07:36:39;;;;;;;3.87;2.20;;;;;;;22.07;53.32;98486.66;5093820;28;20301;-81
2023/07/18 07:39:07;;;;;;;5.47;2.17;;;;;;;22.12;53.85;98492.38;5093237;28;20677;-79
2023/07/18 07:41:34;;;;;;;4.13;2.33;;;;;;;22.28;53.86;98495.06;5091819;28;20237;-80
2023/07/18 07:44:01;;;;;;;4.27;2.30;;;;;;;22.33;53.02;98481.94;5091783;28;20202;-80
2023/07/18 07:46:27;;;;;;;3.53;2.20;;;;;;;22.42;52.57;98480.03;5091794;28;20210;-79
2023/07/18 07:48:54;;;;;;;2.83;2.10;;;;;;;22.51;52.79;98470.97;5092650;28;20214;-79
2023/07/18 07:51:22;;;;;;;4.50;2.30;;;;;;;22.69;51.81;98469.75;5093829;28;20235;-79
2023/07/18 07:53:48;;;;;;;2.63;2.00;;;;;;;22.70;51.01;98454.41;5092581;28;20226;-80
2023/07/18 07:56:16;;;;;;;4.70;2.10;;;;;;;22.67;51.26;98455.59;5091646;28;20306;-78
2023/07/18 07:58:43;;;;;;;3.27;2.00;;;;;;;22.73;51.63;98456.78;5091584;28;20218;-78
2023/07/18 08:01:10;;;;;;;3.40;2.00;;;;;;;22.94;51.10;98441.69;5091159;28;20226;-78
2023/07/18 08:03:37;;;;;;;3.27;2.27;;;;;;;23.05;50.44;98435.88;5094221;28;20203;-79
2023/07/18 08:06:04;;;;;;;2.90;1.90;;;;;;;23.24;49.39;98427.41;5093585;28;20255;-78
2023/07/18 08:08:31;;;;;;;3.97;2.00;;;;;;;23.26;48.85;98417.28;5091616;28;20207;-79
2023/07/18 08:10:57;;;;;;;3.27;2.10;;;;;;;23.28;48.99;98414.41;5090012;28;20288;-78
2023/07/18 08:13:27;;;;;;;4.57;2.53;;;;;;;23.22;48.72;98415.94;5091166;28;20234;-80
2023/07/18 08:15:54;;;;;;;3.80;2.23;;;;;;;23.29;48.79;98425.00;5093612;28;20199;-78
2023/07/18 08:18:20;;;;;;;3.77;1.93;;;;;;;23.31;48.41;98416.72;5093664;28;20203;-79
2023/07/18 08:20:47;;;;;;;3.70;2.00;;;;;;;23.29;48.47;98414.19;5093164;28;20227;-78
2023/07/18 08:23:13;;;;;;;3.00;1.80;;;;;;;23.31;48.46;98417.59;5094068;28;20233;-78
2023/07/18 08:25:42;;;;;;;2.03;1.60;;;;;;;23.45;47.59;98405.16;5093952;28;20584;-78
2023/07/18 08:28:09;;;;;;;4.17;2.33;;;;;;;23.53;48.93;98422.13;5093832;28;20310;-78
2023/07/18 08:30:40;;;;;;;3.57;2.20;;;;;;;23.69;48.50;98421.16;5092768;28;20603;-79
2023/07/18 08:33:07;;;;;;;3.27;1.77;;;;;;;23.87;46.74;98398.28;5093249;28;20589;-78
2023/07/18 08:35:33;;;;;;;3.40;2.00;;;;;;;24.02;46.53;98388.31;5093464;28;20222;-79
2023/07/18 08:38:00;;;;;;;3.07;1.80;;;;;;;23.99;46.43;98385.16;5093407;28;20210;-78
2023/07/18 08:40:26;;;;;;;3.67;1.67;;;;;;;24.00;46.04;98386.81;5092552;28;20234;-79
2023/07/18 08:42:53;;;;;;;3.23;1.90;;;;;;;24.12;46.22;98391.59;5093440;28;20203;-76
2023/07/18 08:45:23;;;;;;;1.87;1.47;;;;;;;24.18;44.75;98374.66;5093606;28;20218;-85
2023/07/18 08:47:56;;;;;;;2.40;1.70;;;;;;;24.26;45.79;98377.25;5093471;28;20657;-83
2023/07/18 08:50:24;;;;;;;3.03;1.67;;;;;;;24.39;45.55;98374.75;5092693;28;20288;-84
2023/07/18 08:52:50;;;;;;;2.93;1.70;;;;;;;24.49;44.93;98366.34;5093266;28;20234;-84
2023/07/18 08:55:21;;;;;;;2.30;1.67;;;;;;;24.42;45.01;98373.53;5093160;28;20705;-82
2023/07/18 08:57:50;;;;;;;3.87;2.07;;;;;;;24.51;45.15;98375.97;5093422;28;20210;-80
2023/07/18 09:00:21;;;;;;;2.83;1.80;;;;;;;24.54;44.08;98362.09;5092577;28;20211;-80
2023/07/18 09:02:49;;;;;;;3.17;1.77;;;;;;;24.67;44.13;98359.59;5093136;28;20272;-80
2023/07/18 09:05:32;;;;;;;2.23;1.60;;;;;;;24.56;44.01;98354.63;5092957;28;20669;-79
2023/07/18 09:08:00;;;;;;;4.40;1.80;;;;;;;24.71;44.60;98355.50;5092889;28;20332;-79
2023/07/18 09:10:27;;;;;;;2.73;1.80;;;;;;;24.88;43.60;98350.69;5091077;28;20230;-78
2023/07/18 09:12:54;;;;;;;3.88;1.60;;;;;;;25.03;43.25;98344.22;5090914;28;20230;-79
2023/07/18 09:15:21;;;;;;;3.87;1.80;;;;;;;25.10;43.92;98355.94;5092830;28;20214;-79
2023/07/18 09:17:49;;;;;;;3.75;1.67;;;;;;;25.22;43.27;98351.69;5092749;28;20582;-79
2023/07/18 09:20:18;;;;;;;3.67;1.80;;;;;;;25.34;43.33;98352.03;5091820;28;20256;-77
2023/07/18 09:22:46;;;;;;;3.47;1.73;;;;;;;25.48;43.18;98351.16;5091686;28;20202;-78
2023/07/18 09:25:15;;;;;;;3.25;1.85;;;;;;;25.55;42.44;98335.81;5091903;28;20518;-78
2023/07/18 09:27:41;;;;;;;2.03;1.58;;;;;;;25.43;41.74;98324.66;5092593;28;20203;-79
2023/07/18 09:30:09;;;;;;;4.15;2.10;;;;;;;25.42;41.42;98316.75;5091367;28;20719;-78
2023/07/18 09:32:36;;;;;;;1.60;1.50;;;;;;;25.40;42.28;98335.88;5088289;22;20249;-82
2023/07/18 09:35:03;;;;;;;4.93;1.88;;;;;;;25.50;43.01;98335.56;5070740;28;20208;-82
2023/07/18 09:37:29;;;;;;;2.90;1.80;;;;;;;25.61;42.15;98330.44;5070952;28;20739;-82
2023/07/18 09:39:57;;;;;;;3.27;1.80;;;;;;;25.76;42.34;98325.78;5069302;28;20305;-82
2023/07/18 09:42:25;;;;;;;5.78;2.20;;;;;;;25.74;41.66;98316.19;5070567;28;20235;-83
2023/07/18 09:44:51;;;;;;;4.30;2.08;;;;;;;25.69;41.38;98318.63;5070996;28;20216;-83
2023/07/18 09:47:18;;;;;;;3.40;2.03;;;;;;;25.65;42.50;98323.59;5070269;28;20211;-83
2023/07/18 09:49:45;;;;;;;3.58;1.83;;;;;;;25.80;42.27;98321.66;5070151;28;20211;-83
2023/07/18 09:52:12;;;;;;;2.85;1.70;;;;;;;26.08;41.60;98327.91;5070959;28;20227;-83
2023/07/18 09:54:40;;;;;;;2.97;2.13;;;;;;;26.29;42.41;98338.69;5069917;28;20227;-83
2023/07/18 09:57:09;;;;;;;3.53;2.03;;;;;;;26.45;40.99;98334.81;5071041;28;20307;-82
2023/07/18 09:59:38;;;;;;;3.38;2.13;;;;;;;26.57;40.53;98330.53;5070127;28;20207;-83
2023/07/18 10:02:06;;;;;;;2.50;1.70;;;;;;;26.68;40.91;98357.91;5069486;28;20234;-83
2023/07/18 10:04:33;;;;;;;4.22;2.00;;;;;;;26.82;40.38;98377.78;5070718;28;20751;-82
2023/07/18 10:07:01;;;;;;;2.65;1.95;;;;;;;26.94;40.10;98393.28;5070459;28;20219;-82
2023/07/18 10:09:29;;;;;;;2.63;2.13;;;;;;;27.02;40.19;98397.69;5068453;28;20215;-82
2023/07/18 10:12:12;;;;;;;4.68;2.20;;;;;;;27.20;41.78;98415.09;5069775;28;20605;-82
2023/07/18 10:14:50;;;;;;;2.75;2.03;;;;;;;27.33;41.20;98398.88;5065504;28;20227;-82
2023/07/18 10:17:28;;;;;;;2.60;2.40;;;;;;;27.40;41.03;98395.13;5067115;28;20475;-80
2023/07/18 10:19:55;;;;;;;3.35;2.25;;;;;;;27.41;41.15;98385.13;5067986;28;20215;-81
2023/07/18 10:22:28;;;;;;;4.07;2.30;;;;;;;27.22;40.26;98355.19;5071640;28;20665;-83
2023/07/18 10:24:59;;;;;;;3.45;2.40;;;;;;;27.17;41.31;98333.25;5071520;28;20207;-80
2023/07/18 10:27:35;;;;;;;3.63;2.10;;;;;;;27.08;41.40;98316.31;5071741;28;20294;-82
2023/07/18 10:30:03;;;;;;;2.88;2.10;;;;;;;26.95;41.94;98318.97;5070766;28;20225;-81
2023/07/18 10:32:31;;;;;;;4.30;2.22;;;;;;;26.84;41.57;98265.34;5084831;28;20235;-82
2023/07/18 10:34:58;;;;;;;3.97;2.47;;;;;;;26.77;41.82;98204.81;5091973;28;20280;-82
2023/07/18 10:37:26;;;;;;;2.72;2.30;;;;;;;26.70;42.50;98129.94;5089014;28;20282;-82
2023/07/18 10:39:54;;;;;;;4.00;2.40;;;;;;;26.49;42.71;98046.03;5088132;28;20210;-82
2023/07/18 10:42:24;;;;;;;3.88;2.47;;;;;;;26.15;43.97;98041.59;5088758;28;20740;-82
2023/07/18 10:44:56;;;;;;;3.42;2.45;;;;;;;26.18;43.17;98054.75;5090513;28;20211;-83
2023/07/18 10:47:23;;;;;;;3.95;2.38;;;;;;;26.18;42.52;98108.09;5091591;28;20202;-82
2023/07/18 10:49:49;;;;;;;3.40;2.30;;;;;;;26.27;42.25;98177.34;5088860;28;20213;-82
2023/07/18 10:52:17;;;;;;;3.88;2.38;;;;;;;26.48;41.90;98180.75;5088233;28;20242;-82
2023/07/18 10:54:45;;;;;;;3.22;2.42;;;;;;;26.80;40.52;98185.41;5088482;28;20580;-84
2023/07/18 10:57:12;;;;;;;3.95;2.47;;;;;;;26.76;40.79;98184.16;5089004;28;20226;-83
2023/07/18 10:59:42;;;;;;;4.35;2.65;;;;;;;26.75;42.15;98233.19;5090454;28;20203;-83
2023/07/18 11:02:10;;;;;;;5.63;2.50;;;;;;;26.78;41.81;98266.16;5090500;28;20231;-83
2023/07/18 11:04:37;;;;;;;3.53;2.20;;;;;;;26.93;41.60;98288.53;5088109;28;20230;-83
2023/07/18 11:07:04;;;;;;;3.10;2.40;;;;;;;27.19;41.78;98312.19;5088143;28;20540;-83
2023/07/18 11:09:32;;;;;;;4.00;2.38;;;;;;;27.45;41.39;98318.50;5087490;28;20681;-83
2023/07/18 11:12:00;;;;;;;3.80;2.67;;;;;;;27.56;40.04;98355.88;5090435;28;20226;-83
2023/07/18 11:14:37;;;;;;;3.03;2.40;;;;;;;27.64;42.14;98385.56;5090678;28;20227;-83
2023/07/18 11:17:11;;;;;;;5.68;2.67;;;;;;;27.69;41.92;98373.03;5091061;28;20213;-83
2023/07/18 11:19:38;;;;;;;3.53;2.28;;;;;;;27.52;41.68;98354.66;5090619;28;20211;-83
2023/07/18 11:22:06;;;;;;;3.42;2.33;;;;;;;27.30;41.97;98347.72;5091045;28;20227;-83
2023/07/18 11:24:33;;;;;;;2.45;2.15;;;;;;;27.05;43.43;98352.00;5091045;28;20202;-83
2023/07/18 11:27:14;;;;;;;3.03;2.38;;;;;;;26.84;43.49;98349.44;5091008;28;20207;-83
2023/07/18 11:29:41;;;;;;;4.20;2.42;;;;;;;26.67;43.04;98356.25;5090310;28;20210;-84
2023/07/18 11:32:08;;;;;;;3.53;2.40;;;;;;;26.57;43.99;98366.59;5090730;28;20231;-84